createdAt,value
2023-05-08T00:01:45.773Z,98483.16
2023-05-08T00:04:16.089Z,98476.97
2023-05-08T00:06:46.689Z,98473.44
2023-05-08T00:09:16.969Z,98471.28
2023-05-08T00:11:47.257Z,98468.94
2023-05-08T00:14:18.062Z,98476.91
2023-05-08T00:16:54.226Z,98469.53
2023-05-08T00:19:24.758Z,98465.22
2023-05-08T00:21:55.237Z,98468.59
2023-05-08T00:24:28.687Z,98467.03
2023-05-08T00:27:00.815Z,98465.91
2023-05-08T00:29:31.123Z,98464.00
2023-05-08T00:32:04.049Z,98463.59
2023-05-08T00:34:34.403Z,98468.22
2023-05-08T00:37:04.750Z,98464.69
2023-05-08T00:39:34.972Z,98460.19
2023-05-08T00:42:05.698Z,98461.66
2023-05-08T00:44:36.196Z,98471.47
2023-05-08T00:47:12.462Z,98462.50
2023-05-08T00:49:42.937Z,98468.38
2023-05-08T00:52:13.551Z,98461.16
2023-05-08T00:54:44.293Z,98467.47
2023-05-08T00:57:15.470Z,98466.06
2023-05-08T00:59:47.367Z,98478.34
2023-05-08T01:02:21.228Z,98472.63
2023-05-08T01:04:51.897Z,98470.19
2023-05-08T01:07:22.332Z,98465.28
2023-05-08T01:09:52.630Z,98472.38
2023-05-08T01:12:30.125Z,98472.38
2023-05-08T01:15:12.143Z,98474.94
2023-05-08T01:17:57.005Z,98472.63
2023-05-08T01:20:38.898Z,98469.47
2023-05-08T01:23:38.501Z,98460.28
2023-05-08T01:26:41.027Z,98464.03
2023-05-08T01:29:46.955Z,98458.41
2023-05-08T01:32:25.430Z,98460.53
2023-05-08T01:35:06.367Z,98462.72
2023-05-08T01:37:42.448Z,98460.16
2023-05-08T01:40:21.325Z,98467.13
2023-05-08T01:43:11.528Z,98460.78
2023-05-08T01:45:43.956Z,98459.91
2023-05-08T01:48:20.923Z,98461.44
2023-05-08T01:50:52.855Z,98453.78
2023-05-08T01:53:26.640Z,98461.75
2023-05-08T01:56:01.503Z,98465.56
2023-05-08T01:58:32.487Z,98468.72
2023-05-08T02:01:04.403Z,98465.19
2023-05-08T02:03:38.538Z,98471.03
2023-05-08T02:06:11.619Z,98476.69
2023-05-08T02:08:41.895Z,98485.16
2023-05-08T02:11:13.754Z,98472.31
2023-05-08T02:13:48.701Z,98466.88
2023-05-08T02:16:19.997Z,98470.63
2023-05-08T02:18:55.697Z,98473.97
2023-05-08T02:21:26.959Z,98469.97
2023-05-08T02:23:57.989Z,98486.56
2023-05-08T02:26:28.780Z,98477.38
2023-05-08T02:29:00.552Z,98478.16
2023-05-08T02:31:31.291Z,98480.25
2023-05-08T02:34:04.570Z,98484.91
2023-05-08T02:36:35.558Z,98483.34
2023-05-08T02:39:06.550Z,98474.97
2023-05-08T02:41:37.354Z,98483.47
2023-05-08T02:44:08.053Z,98476.28
2023-05-08T02:46:42.950Z,98489.66
2023-05-08T02:49:26.721Z,98486.00
2023-05-08T02:52:00.971Z,98486.25
2023-05-08T02:54:40.116Z,98488.53
2023-05-08T02:57:17.857Z,98488.81
2023-05-08T02:59:52.123Z,98483.28
2023-05-08T03:02:31.811Z,98492.56
2023-05-08T03:05:08.862Z,98489.38
2023-05-08T03:07:42.104Z,98484.59
2023-05-08T03:10:17.671Z,98487.69
2023-05-08T03:12:49.903Z,98491.81
2023-05-08T03:15:27.538Z,98487.94
2023-05-08T03:18:03.663Z,98495.91
2023-05-08T03:20:40.673Z,98492.81
2023-05-08T03:23:12.760Z,98494.69
2023-05-08T03:25:47.464Z,98491.03
2023-05-08T03:28:19.663Z,98494.72
2023-05-08T03:30:51.163Z,98490.94
2023-05-08T03:33:21.627Z,98486.28
2023-05-08T03:35:56.649Z,98488.41
2023-05-08T03:38:27.309Z,98487.63
2023-05-08T03:40:57.611Z,98492.38
2023-05-08T03:43:28.810Z,98490.06
2023-05-08T03:46:02.251Z,98493.72
2023-05-08T03:48:36.237Z,98489.28
2023-05-08T03:51:09.564Z,98491.59
2023-05-08T03:53:41.370Z,98490.72
2023-05-08T03:56:11.658Z,98494.91
2023-05-08T03:58:46.522Z,98490.28
2023-05-08T04:01:22.382Z,98493.72
2023-05-08T04:03:59.730Z,98490.84
2023-05-08T04:06:49.408Z,98493.59
2023-05-08T04:09:31.054Z,98504.09
2023-05-08T04:12:06.855Z,98497.00
2023-05-08T04:14:43.531Z,98504.31
2023-05-08T04:17:17.628Z,98504.66
2023-05-08T04:19:50.223Z,98502.88
2023-05-08T04:22:23.700Z,98513.06
2023-05-08T04:24:55.799Z,98512.94
2023-05-08T04:27:26.858Z,98521.34
2023-05-08T04:29:57.623Z,98520.22
2023-05-08T04:32:28.532Z,98521.19
2023-05-08T04:34:59.261Z,98529.91
2023-05-08T04:37:33.653Z,98527.72
2023-05-08T04:40:07.055Z,98523.94
2023-05-08T04:42:38.963Z,98530.34
2023-05-08T04:45:10.885Z,98537.22
2023-05-08T04:47:41.361Z,98533.88
2023-05-08T04:50:13.042Z,98536.06
2023-05-08T04:52:45.928Z,98535.63
2023-05-08T04:55:16.075Z,98538.94
2023-05-08T04:57:46.837Z,98539.47
2023-05-08T05:00:18.710Z,98540.22
2023-05-08T05:02:50.168Z,98537.03
2023-05-08T05:05:20.979Z,98539.78
2023-05-08T05:07:54.190Z,98549.69
2023-05-08T05:10:24.966Z,98544.88
2023-05-08T05:12:55.164Z,98550.47
2023-05-08T05:15:25.590Z,98552.69
2023-05-08T05:17:56.182Z,98544.41
2023-05-08T05:20:26.526Z,98543.03
2023-05-08T05:22:59.607Z,98540.28
2023-05-08T05:25:32.450Z,98540.00
2023-05-08T05:28:03.575Z,98547.84
2023-05-08T05:30:33.793Z,98544.50
2023-05-08T05:33:04.787Z,98551.13
2023-05-08T05:35:35.168Z,98555.44
2023-05-08T05:38:08.464Z,98555.25
2023-05-08T05:40:39.252Z,98553.31
2023-05-08T05:43:11.269Z,98554.47
2023-05-08T05:45:41.593Z,98552.91
2023-05-08T05:48:12.409Z,98565.09
2023-05-08T05:50:43.817Z,98563.63
2023-05-08T05:53:16.876Z,98565.66
2023-05-08T05:55:47.202Z,98570.75
2023-05-08T05:58:17.622Z,98565.03
2023-05-08T06:00:48.775Z,98564.06
2023-05-08T06:03:21.145Z,98578.75
2023-05-08T06:05:54.334Z,98574.91
2023-05-08T06:08:28.222Z,98583.06
2023-05-08T06:10:59.627Z,98574.47
2023-05-08T06:13:30.477Z,98571.34
2023-05-08T06:16:04.221Z,98574.63
2023-05-08T06:18:34.501Z,98584.19
2023-05-08T06:21:04.703Z,98574.94
2023-05-08T06:23:37.499Z,98576.81
2023-05-08T06:26:07.983Z,98578.81
2023-05-08T06:28:40.032Z,98581.31
2023-05-08T06:31:10.322Z,98578.38
2023-05-08T06:33:40.525Z,98576.22
2023-05-08T06:36:11.379Z,98582.69
2023-05-08T06:38:44.602Z,98576.38
2023-05-08T06:41:16.542Z,98580.41
2023-05-08T06:43:46.886Z,98576.66
2023-05-08T06:46:17.154Z,98581.38
2023-05-08T06:48:47.391Z,98584.88
2023-05-08T06:51:23.333Z,98581.38
2023-05-08T06:53:59.315Z,98583.41
2023-05-08T06:56:29.746Z,98577.53
2023-05-08T06:59:07.966Z,98573.53
2023-05-08T07:01:38.911Z,98567.41
2023-05-08T07:04:09.281Z,98573.69
2023-05-08T07:06:39.562Z,98577.63
2023-05-08T07:09:13.251Z,98573.13
2023-05-08T07:11:43.737Z,98569.59
2023-05-08T07:14:13.949Z,98581.59
2023-05-08T07:16:44.170Z,98574.47
2023-05-08T07:19:14.745Z,98573.88
2023-05-08T07:21:46.499Z,98578.44
2023-05-08T07:24:21.277Z,98580.81
2023-05-08T07:26:51.792Z,98582.28
2023-05-08T07:29:21.947Z,98577.00
2023-05-08T07:31:54.409Z,98578.09
2023-05-08T07:34:24.589Z,98570.56
2023-05-08T07:36:54.719Z,98574.03
2023-05-08T07:39:27.507Z,98572.59
2023-05-08T07:41:57.744Z,98578.31
2023-05-08T07:44:27.933Z,98578.06
2023-05-08T07:46:58.458Z,98577.53
2023-05-08T07:49:29.019Z,98576.50
2023-05-08T07:51:59.215Z,98582.91
2023-05-08T07:54:32.037Z,98583.47
2023-05-08T07:57:02.148Z,98583.41
2023-05-08T07:59:32.373Z,98579.53
2023-05-08T08:02:02.572Z,98578.09
2023-05-08T08:04:34.932Z,98575.53
2023-05-08T08:07:05.200Z,98569.22
2023-05-08T08:09:38.040Z,98568.72
2023-05-08T08:12:08.419Z,98566.97
2023-05-08T08:14:39.190Z,98573.34
2023-05-08T08:17:12.180Z,98568.03
2023-05-08T08:19:42.551Z,98564.44
2023-05-08T08:22:12.824Z,98560.78
2023-05-08T08:24:45.700Z,98555.59
2023-05-08T08:27:20.979Z,98556.75
2023-05-08T08:29:58.539Z,98551.44
2023-05-08T08:32:36.292Z,98558.75
2023-05-08T08:35:06.894Z,98557.22
2023-05-08T08:37:37.228Z,98557.06
2023-05-08T08:40:11.618Z,98546.44
2023-05-08T08:42:42.223Z,98555.72
2023-05-08T08:45:13.877Z,98556.66
2023-05-08T08:47:50.404Z,98550.75
2023-05-08T08:50:23.201Z,98547.34
2023-05-08T08:53:00.024Z,98550.66
2023-05-08T08:55:33.773Z,98548.50
2023-05-08T08:58:18.453Z,98544.94
2023-05-08T09:00:49.277Z,98544.72
2023-05-08T09:03:19.793Z,98546.00
2023-05-08T09:05:51.385Z,98546.06
2023-05-08T09:08:21.969Z,98541.72
2023-05-08T09:10:58.828Z,98540.38
2023-05-08T09:13:30.656Z,98535.34
2023-05-08T09:16:01.568Z,98545.81
2023-05-08T09:18:34.143Z,98544.03
2023-05-08T09:21:06.393Z,98543.25
2023-05-08T09:23:41.563Z,98543.72
2023-05-08T09:26:14.396Z,98544.84
2023-05-08T09:28:44.732Z,98540.34
2023-05-08T09:31:15.057Z,98550.28
2023-05-08T09:33:47.883Z,98545.28
2023-05-08T09:36:32.279Z,98544.63
2023-05-08T09:39:02.682Z,98541.50
2023-05-08T09:41:35.708Z,98544.00
2023-05-08T09:44:07.365Z,98545.56
2023-05-08T09:46:38.360Z,98534.16
2023-05-08T09:49:08.592Z,98532.00
2023-05-08T09:51:40.890Z,98539.34
2023-05-08T09:54:23.823Z,98538.34
2023-05-08T09:56:56.812Z,98542.69
2023-05-08T09:59:30.414Z,98533.84
2023-05-08T10:02:01.828Z,98540.16
2023-05-08T10:04:35.741Z,98540.25
2023-05-08T10:07:06.371Z,98543.78
2023-05-08T10:09:47.515Z,98549.25
2023-05-08T10:12:24.605Z,98549.03
2023-05-08T10:14:55.271Z,98555.06
2023-05-08T10:17:30.118Z,98546.53
2023-05-08T10:20:04.057Z,98537.78
2023-05-08T10:22:36.656Z,98543.28
2023-05-08T10:25:07.778Z,98534.91
2023-05-08T10:27:44.883Z,98538.88
2023-05-08T10:30:20.676Z,98529.78
2023-05-08T10:32:56.382Z,98544.00
2023-05-08T10:35:27.248Z,98543.94
2023-05-08T10:37:59.556Z,98539.94
2023-05-08T10:40:30.029Z,98538.69
2023-05-08T10:43:03.715Z,98540.25
2023-05-08T10:45:34.606Z,98535.03
2023-05-08T10:48:11.946Z,98541.34
2023-05-08T10:50:47.635Z,98536.28
2023-05-08T10:53:22.526Z,98532.34
2023-05-08T10:55:54.511Z,98541.44
2023-05-08T10:58:40.548Z,98522.56
2023-05-08T11:01:15.650Z,98538.31
2023-05-08T11:03:48.161Z,98523.09
2023-05-08T11:06:21.164Z,98518.53
2023-05-08T11:08:55.419Z,98519.56
2023-05-08T11:11:29.859Z,98514.00
2023-05-08T11:14:15.429Z,98527.56
2023-05-08T11:17:06.825Z,98505.56
2023-05-08T11:19:37.872Z,98513.88
2023-05-08T11:22:27.326Z,98522.06
2023-05-08T11:25:00.209Z,98507.56
2023-05-08T11:27:45.138Z,98515.94
2023-05-08T11:30:42.267Z,98503.25
2023-05-08T11:33:20.226Z,98506.75
2023-05-08T11:35:59.337Z,98511.38
2023-05-08T11:38:36.378Z,98500.19
2023-05-08T11:41:08.832Z,98505.00
2023-05-08T11:44:15.202Z,98496.34
2023-05-08T11:46:56.451Z,98499.84
2023-05-08T11:49:30.270Z,98494.06
2023-05-08T11:52:07.058Z,98501.72
2023-05-08T11:54:37.717Z,98481.31
2023-05-08T11:57:10.682Z,98491.47
2023-05-08T11:59:41.332Z,98490.88
2023-05-08T12:02:15.585Z,98492.56
2023-05-08T12:04:49.455Z,98487.81
2023-05-08T12:07:20.778Z,98488.09
2023-05-08T12:09:54.067Z,98493.31
2023-05-08T12:12:24.524Z,98485.09
2023-05-08T12:14:54.776Z,98490.03
2023-05-08T12:17:27.668Z,98492.88
2023-05-08T12:20:04.329Z,98477.53
2023-05-08T12:22:34.971Z,98486.91
2023-05-08T12:25:07.096Z,98489.50
2023-05-08T12:27:37.409Z,98495.66
2023-05-08T12:30:15.439Z,98492.81
2023-05-08T12:32:52.248Z,98483.59
2023-05-08T12:35:22.808Z,98489.31
2023-05-08T12:37:55.018Z,98493.63
2023-05-08T12:40:30.015Z,98498.72
2023-05-08T12:43:01.126Z,98488.88
2023-05-08T12:45:33.929Z,98488.50
2023-05-08T12:48:08.798Z,98491.00
2023-05-08T12:50:40.352Z,98482.53
2023-05-08T12:53:11.733Z,98485.06
2023-05-08T12:55:45.839Z,98491.00
2023-05-08T12:58:16.973Z,98480.00
2023-05-08T13:00:48.224Z,98486.03
2023-05-08T13:03:26.430Z,98474.94
2023-05-08T13:05:57.923Z,98473.88
2023-05-08T13:08:33.148Z,98469.41
2023-05-08T13:11:04.931Z,98456.88
2023-05-08T13:13:37.044Z,98469.19
2023-05-08T13:16:09.386Z,98459.59
2023-05-08T13:18:45.512Z,98459.81
2023-05-08T13:21:16.435Z,98452.03
2023-05-08T13:23:46.582Z,98458.16
2023-05-08T13:26:16.684Z,98456.28
2023-05-08T13:28:46.828Z,98454.66
2023-05-08T13:31:17.058Z,98449.63
2023-05-08T13:33:49.839Z,98450.25
2023-05-08T13:36:20.865Z,98455.53
2023-05-08T13:38:51.683Z,98453.38
2023-05-08T13:41:22.334Z,98458.34
2023-05-08T13:43:52.477Z,98446.25
2023-05-08T13:46:22.870Z,98449.34
2023-05-08T13:48:55.803Z,98449.03
2023-05-08T13:51:26.561Z,98450.13
2023-05-08T13:53:56.823Z,98449.19
2023-05-08T13:56:27.067Z,98452.44
2023-05-08T13:58:57.219Z,98442.38
2023-05-08T14:01:28.054Z,98442.63
2023-05-08T14:04:01.034Z,98445.75
2023-05-08T14:06:31.425Z,98440.66
2023-05-08T14:09:01.645Z,98443.34
2023-05-08T14:11:32.167Z,98447.69
2023-05-08T14:14:02.369Z,98444.34
2023-05-08T14:16:33.156Z,98451.94
2023-05-08T14:19:06.094Z,98447.19
2023-05-08T14:21:37.008Z,98442.81
2023-05-08T14:24:09.093Z,98431.16
2023-05-08T14:26:39.665Z,98431.41
2023-05-08T14:29:09.894Z,98431.56
2023-05-08T14:31:40.019Z,98427.56
2023-05-08T14:34:12.854Z,98419.16
2023-05-08T14:36:43.107Z,98421.19
2023-05-08T14:39:13.264Z,98413.59
2023-05-08T14:41:54.998Z,98409.16
2023-05-08T14:44:33.748Z,98414.94
2023-05-08T14:47:03.969Z,98431.59
2023-05-08T14:49:38.437Z,98426.66
2023-05-08T14:52:09.079Z,98423.03
2023-05-08T14:54:39.621Z,98429.84
2023-05-08T14:57:09.999Z,98424.19
2023-05-08T14:59:49.011Z,98435.22
2023-05-08T15:02:22.637Z,98431.00
2023-05-08T15:04:55.906Z,98430.78
2023-05-08T15:07:26.101Z,98425.19
2023-05-08T15:09:56.326Z,98415.50
2023-05-08T15:12:26.455Z,98420.94
2023-05-08T15:14:56.680Z,98419.16
2023-05-08T15:17:26.872Z,98420.13
2023-05-08T15:19:59.733Z,98413.72
2023-05-08T15:22:29.869Z,98420.72
2023-05-08T15:25:02.747Z,98424.63
2023-05-08T15:27:33.316Z,98418.34
2023-05-08T15:30:03.717Z,98425.88
2023-05-08T15:32:34.741Z,98427.22
2023-05-08T15:35:08.384Z,98422.63
2023-05-08T15:37:39.274Z,98426.78
2023-05-08T15:40:13.097Z,98426.47
2023-05-08T15:42:43.178Z,98423.72
2023-05-08T15:45:13.842Z,98429.06
2023-05-08T15:47:44.104Z,98431.03
2023-05-08T15:50:17.742Z,98423.94
2023-05-08T15:52:47.872Z,98433.56
2023-05-08T15:55:18.173Z,98426.97
2023-05-08T15:57:48.300Z,98430.38
2023-05-08T16:00:20.126Z,98419.94
2023-05-08T16:02:50.468Z,98430.97
2023-05-08T16:05:23.230Z,98427.50
2023-05-08T16:07:54.490Z,98428.16
2023-05-08T16:10:24.601Z,98425.88
2023-05-08T16:12:54.764Z,98419.53
2023-05-08T16:15:24.972Z,98425.44
2023-05-08T16:17:55.082Z,98419.63
2023-05-08T16:20:28.147Z,98421.97
2023-05-08T16:22:58.471Z,98418.53
2023-05-08T16:25:28.824Z,98407.97
2023-05-08T16:27:58.957Z,98410.03
2023-05-08T16:30:29.100Z,98409.34
2023-05-08T16:32:59.233Z,98416.75
2023-05-08T16:35:33.498Z,98411.94
2023-05-08T16:38:04.980Z,98409.94
2023-05-08T16:40:35.044Z,98415.13
2023-05-08T16:43:05.182Z,98419.97
2023-05-08T16:45:35.614Z,98415.88
2023-05-08T16:48:05.760Z,98417.44
2023-05-08T16:50:38.487Z,98420.25
2023-05-08T16:53:08.789Z,98424.84
2023-05-08T16:55:38.959Z,98413.09
2023-05-08T16:58:10.091Z,98414.66
2023-05-08T17:00:40.206Z,98418.03
2023-05-08T17:03:10.342Z,98415.75
2023-05-08T17:05:43.158Z,98420.88
2023-05-08T17:08:15.612Z,98420.41
2023-05-08T17:10:45.699Z,98426.03
2023-05-08T17:13:15.807Z,98422.97
2023-05-08T17:15:46.019Z,98419.13
2023-05-08T17:18:16.116Z,98429.59
2023-05-08T17:20:48.809Z,98429.13
2023-05-08T17:23:18.861Z,98432.72
2023-05-08T17:25:48.954Z,98437.34
2023-05-08T17:28:19.158Z,98438.38
2023-05-08T17:30:49.179Z,98433.00
2023-05-08T17:33:19.848Z,98433.03
2023-05-08T17:35:52.592Z,98436.09
2023-05-08T17:38:22.756Z,98433.53
2023-05-08T17:40:53.296Z,98441.72
2023-05-08T17:43:23.426Z,98433.28
2023-05-08T17:45:53.564Z,98442.47
2023-05-08T17:48:23.657Z,98445.28
2023-05-08T17:50:56.591Z,98446.28
2023-05-08T17:53:26.677Z,98448.34
2023-05-08T17:55:56.746Z,98446.28
2023-05-08T17:58:26.980Z,98448.59
2023-05-08T18:00:57.255Z,98440.19
2023-05-08T18:03:27.715Z,98449.09
2023-05-08T18:06:00.487Z,98446.31
2023-05-08T18:08:30.650Z,98442.72
2023-05-08T18:11:00.745Z,98451.41
2023-05-08T18:13:30.778Z,98444.00
2023-05-08T18:16:00.916Z,98450.16
2023-05-08T18:18:31.047Z,98452.19
2023-05-08T18:21:03.759Z,98451.16
2023-05-08T18:23:33.985Z,98456.25
2023-05-08T18:26:04.276Z,98456.47
2023-05-08T18:28:36.245Z,98453.69
2023-05-08T18:31:06.412Z,98455.97
2023-05-08T18:33:37.308Z,98451.84
2023-05-08T18:36:10.323Z,98458.75
2023-05-08T18:38:41.802Z,98453.63
2023-05-08T18:41:11.921Z,98458.16
2023-05-08T18:43:42.125Z,98465.03
2023-05-08T18:46:13.486Z,98464.25
2023-05-08T18:48:44.023Z,98464.47
2023-05-08T18:51:16.733Z,98461.13
2023-05-08T18:53:46.884Z,98463.63
2023-05-08T18:56:16.980Z,98469.44
2023-05-08T18:58:47.124Z,98469.97
2023-05-08T19:01:20.239Z,98461.75
2023-05-08T19:03:51.192Z,98468.59
2023-05-08T19:06:24.017Z,98475.41
2023-05-08T19:08:57.087Z,98468.28
2023-05-08T19:11:27.395Z,98467.66
2023-05-08T19:13:57.940Z,98471.19
2023-05-08T19:16:28.093Z,98469.13
2023-05-08T19:18:58.480Z,98476.22
2023-05-08T19:21:32.170Z,98470.03
2023-05-08T19:24:02.458Z,98463.66
2023-05-08T19:26:32.795Z,98472.56
2023-05-08T19:29:03.014Z,98475.09
2023-05-08T19:31:33.167Z,98475.59
2023-05-08T19:34:03.427Z,98477.66
2023-05-08T19:36:37.783Z,98477.66
2023-05-08T19:39:08.291Z,98472.56
2023-05-08T19:41:38.458Z,98471.75
2023-05-08T19:44:08.761Z,98469.22
2023-05-08T19:46:39.262Z,98478.88
2023-05-08T19:49:10.191Z,98469.47
2023-05-08T19:51:42.968Z,98470.66
2023-05-08T19:54:13.283Z,98465.81
2023-05-08T19:56:43.562Z,98467.28
2023-05-08T19:59:14.078Z,98464.22
2023-05-08T20:01:44.248Z,98468.94
2023-05-08T20:04:14.484Z,98468.63
2023-05-08T20:06:47.274Z,98469.28
2023-05-08T20:09:17.439Z,98465.19
2023-05-08T20:11:47.643Z,98462.59
2023-05-08T20:14:17.730Z,98465.81
2023-05-08T20:16:47.855Z,98458.63
2023-05-08T20:19:18.063Z,98453.69
2023-05-08T20:21:50.937Z,98460.66
2023-05-08T20:24:21.196Z,98465.72
2023-05-08T20:26:54.424Z,98468.72
2023-05-08T20:29:24.894Z,98472.13
2023-05-08T20:31:55.428Z,98471.88
2023-05-08T20:34:25.680Z,98479.41
2023-05-08T20:36:59.459Z,98472.22
2023-05-08T20:39:29.643Z,98469.34
2023-05-08T20:41:59.836Z,98471.84
2023-05-08T20:44:30.034Z,98473.03
2023-05-08T20:47:00.249Z,98468.91
2023-05-08T20:49:30.336Z,98474.72
2023-05-08T20:52:03.172Z,98471.84
2023-05-08T20:54:33.314Z,98470.03
2023-05-08T20:57:03.714Z,98466.38
2023-05-08T20:59:33.892Z,98466.38
2023-05-08T21:02:04.058Z,98464.94
2023-05-08T21:04:34.208Z,98466.28
2023-05-08T21:07:07.030Z,98463.41
2023-05-08T21:09:37.240Z,98462.34
2023-05-08T21:12:07.933Z,98463.59
2023-05-08T21:14:38.745Z,98461.78
2023-05-08T21:17:08.856Z,98461.50
2023-05-08T21:19:39.045Z,98457.81
2023-05-08T21:22:13.992Z,98464.94
2023-05-08T21:24:46.131Z,98465.25
2023-05-08T21:27:16.309Z,98462.56
2023-05-08T21:29:46.534Z,98459.00
2023-05-08T21:32:16.602Z,98461.78
2023-05-08T21:34:46.823Z,98456.88
2023-05-08T21:37:19.593Z,98461.00
2023-05-08T21:39:51.852Z,98457.88
2023-05-08T21:42:22.044Z,98458.44
2023-05-08T21:44:52.204Z,98463.16
2023-05-08T21:47:23.108Z,98457.13
2023-05-08T21:49:53.250Z,98462.22
2023-05-08T21:52:26.646Z,98463.38
2023-05-08T21:54:56.841Z,98456.75
2023-05-08T21:57:27.040Z,98464.84
2023-05-08T21:59:57.327Z,98464.75
2023-05-08T22:02:27.485Z,98464.53
2023-05-08T22:04:57.739Z,98465.88
2023-05-08T22:07:30.617Z,98464.31
2023-05-08T22:10:00.846Z,98463.59
2023-05-08T22:12:31.020Z,98461.75
2023-05-08T22:15:01.156Z,98464.84
2023-05-08T22:17:31.408Z,98464.16
2023-05-08T22:20:01.586Z,98466.47
2023-05-08T22:22:34.410Z,98462.03
2023-05-08T22:25:04.545Z,98458.38
2023-05-08T22:27:34.731Z,98457.72
2023-05-08T22:30:04.969Z,98454.53
2023-05-08T22:32:35.234Z,98451.31
2023-05-08T22:35:05.447Z,98448.16
2023-05-08T22:37:38.209Z,98445.47
2023-05-08T22:40:10.252Z,98445.94
2023-05-08T22:42:41.018Z,98441.63
2023-05-08T22:45:13.549Z,98438.16
2023-05-08T22:47:44.078Z,98436.03
2023-05-08T22:50:14.485Z,98433.56
2023-05-08T22:52:47.254Z,98434.91
2023-05-08T22:55:18.253Z,98430.47
2023-05-08T22:57:48.498Z,98432.88
2023-05-08T23:00:19.292Z,98436.41
2023-05-08T23:02:49.464Z,98429.50
2023-05-08T23:05:19.787Z,98431.72
2023-05-08T23:07:52.626Z,98430.63
2023-05-08T23:10:23.028Z,98438.22
2023-05-08T23:12:53.180Z,98434.50
2023-05-08T23:15:24.015Z,98432.19
2023-05-08T23:17:54.433Z,98433.91
2023-05-08T23:20:27.065Z,98420.41
2023-05-08T23:23:02.072Z,98417.25
2023-05-08T23:25:32.236Z,98409.72
2023-05-08T23:28:02.384Z,98410.28
2023-05-08T23:30:32.498Z,98415.28
2023-05-08T23:33:02.710Z,98408.06
2023-05-08T23:35:32.917Z,98407.91
2023-05-08T23:38:05.737Z,98405.28
2023-05-08T23:40:35.944Z,98400.44
2023-05-08T23:43:06.388Z,98401.97
2023-05-08T23:45:36.550Z,98396.06
2023-05-08T23:48:07.435Z,98391.81
2023-05-08T23:50:37.667Z,98388.00
2023-05-08T23:53:10.457Z,98386.59
2023-05-08T23:55:40.917Z,98382.69
2023-05-08T23:58:11.016Z,98390.50
